createdAt,value
2018-01-14T00:00:29.193Z,5.87
2018-01-14T00:01:38.245Z,5.82
2018-01-14T00:02:46.772Z,5.87
2018-01-14T00:03:55.833Z,5.81
2018-01-14T00:05:05.175Z,5.84
2018-01-14T00:06:16.917Z,5.84
2018-01-14T00:07:26.235Z,5.87
2018-01-14T00:08:35.026Z,5.81
2018-01-14T00:09:43.818Z,5.82
2018-01-14T00:10:52.336Z,5.84
2018-01-14T00:12:01.121Z,5.82
2018-01-14T00:13:09.906Z,5.82
2018-01-14T00:14:18.686Z,5.82
2018-01-14T00:15:27.468Z,5.88
2018-01-14T00:16:36.833Z,5.84
2018-01-14T00:17:45.886Z,5.84
2018-01-14T00:18:56.199Z,5.81
2018-01-14T00:20:05.512Z,5.85
2018-01-14T00:21:14.559Z,5.91
2018-01-14T00:22:23.342Z,5.87
2018-01-14T00:23:32.387Z,5.81
2018-01-14T00:24:41.432Z,5.87
2018-01-14T00:25:50.481Z,5.84
2018-01-14T00:26:59.270Z,5.81
2018-01-14T00:28:08.054Z,5.82
2018-01-14T00:29:17.373Z,5.84
2018-01-14T00:30:26.157Z,5.84
2018-01-14T00:31:34.676Z,5.85
2018-01-14T00:32:43.197Z,5.82
2018-01-14T00:33:52.244Z,5.84
2018-01-14T00:35:01.026Z,5.92
2018-01-14T00:36:09.808Z,5.89
2018-01-14T00:37:19.116Z,5.85
2018-01-14T00:38:28.164Z,5.88
2018-01-14T00:39:36.684Z,5.88
2018-01-14T00:40:45.730Z,5.84
2018-01-14T00:41:54.514Z,5.8
2018-01-14T00:43:03.567Z,5.84
2018-01-14T00:44:12.879Z,5.8
2018-01-14T00:45:21.661Z,5.84
2018-01-14T00:46:30.181Z,5.85
2018-01-14T00:47:38.964Z,5.84
2018-01-14T00:48:47.749Z,5.84
2018-01-14T00:49:56.529Z,5.87
2018-01-14T00:51:05.315Z,5.85
2018-01-14T00:52:14.095Z,5.82
2018-01-14T00:53:22.613Z,5.84
2018-01-14T00:54:31.662Z,5.88
2018-01-14T00:55:40.457Z,5.84
2018-01-14T00:56:49.502Z,5.87
2018-01-14T00:57:58.022Z,5.85
2018-01-14T00:59:06.804Z,5.84
2018-01-14T01:00:15.865Z,5.85
2018-01-14T01:01:24.652Z,5.81
2018-01-14T01:02:33.434Z,5.85
2018-01-14T01:03:42.268Z,5.78
2018-01-14T01:04:51.574Z,5.84
2018-01-14T01:06:01.119Z,5.82
2018-01-14T01:07:09.638Z,5.78
2018-01-14T01:08:18.416Z,5.8
2018-01-14T01:09:27.461Z,5.81
2018-01-14T01:10:36.513Z,5.85
2018-01-14T01:11:45.564Z,5.81
2018-01-14T01:12:54.341Z,5.82
2018-01-14T01:14:03.119Z,5.73
2018-01-14T01:15:11.901Z,5.8
2018-01-14T01:16:20.417Z,5.77
2018-01-14T01:17:28.940Z,5.77
2018-01-14T01:18:37.456Z,5.77
2018-01-14T01:19:46.239Z,5.77
2018-01-14T01:20:55.283Z,5.75
2018-01-14T01:22:04.591Z,5.77
2018-01-14T01:23:13.372Z,5.8
2018-01-14T01:24:22.154Z,5.78
2018-01-14T01:25:31.466Z,5.84
2018-01-14T01:26:40.246Z,5.7
2018-01-14T01:27:49.560Z,5.78
2018-01-14T01:28:58.076Z,5.75
2018-01-14T01:30:06.856Z,5.66
2018-01-14T01:31:15.372Z,5.72
2018-01-14T01:32:24.158Z,5.75
2018-01-14T01:33:32.940Z,5.77
2018-01-14T01:34:41.724Z,5.73
2018-01-14T01:35:50.239Z,5.72
2018-01-14T01:36:59.022Z,5.75
2018-01-14T01:38:08.069Z,5.64
2018-01-14T01:39:16.862Z,5.67
2018-01-14T01:40:25.644Z,5.67
2018-01-14T01:41:34.430Z,5.7
2018-01-14T01:42:43.474Z,5.67
2018-01-14T01:43:52.255Z,5.7
2018-01-14T01:45:01.038Z,5.66
2018-01-14T01:46:10.089Z,5.7
2018-01-14T01:47:18.881Z,5.67
2018-01-14T01:48:27.976Z,5.66
2018-01-14T01:49:36.761Z,5.66
2018-01-14T01:50:45.544Z,5.66
2018-01-14T01:51:54.856Z,5.69
2018-01-14T01:53:03.635Z,5.69
2018-01-14T01:54:12.418Z,5.66
2018-01-14T01:55:21.464Z,5.72
2018-01-14T01:56:30.251Z,5.72
2018-01-14T01:57:39.298Z,5.75
2018-01-14T01:58:47.814Z,5.75
2018-01-14T01:59:56.609Z,5.73
2018-01-14T02:01:05.385Z,5.7
2018-01-14T02:02:13.904Z,5.72
2018-01-14T02:03:22.888Z,5.64
2018-01-14T02:04:31.672Z,5.64
2018-01-14T02:05:40.188Z,5.64
2018-01-14T02:06:49.233Z,5.64
2018-01-14T02:07:58.280Z,5.75
2018-01-14T02:09:07.852Z,5.72
2018-01-14T02:10:16.635Z,5.64
2018-01-14T02:11:25.415Z,5.67
2018-01-14T02:12:33.936Z,5.67
2018-01-14T02:13:42.980Z,5.63
2018-01-14T02:14:51.498Z,5.64
2018-01-14T02:16:00.547Z,5.7
2018-01-14T02:17:09.350Z,5.64
2018-01-14T02:18:17.871Z,5.7
2018-01-14T02:19:26.914Z,5.66
2018-01-14T02:20:35.700Z,5.72
2018-01-14T02:21:44.484Z,5.64
2018-01-14T02:22:53.801Z,5.7
2018-01-14T02:24:02.579Z,5.72
2018-01-14T02:25:11.358Z,5.67
2018-01-14T02:26:20.404Z,5.67
2018-01-14T02:27:29.451Z,5.67
2018-01-14T02:28:38.233Z,5.63
2018-01-14T02:29:47.274Z,5.73
2018-01-14T02:30:56.056Z,5.66
2018-01-14T02:32:04.575Z,5.66
2018-01-14T02:33:13.623Z,5.67
2018-01-14T02:34:22.403Z,5.64
2018-01-14T02:35:31.455Z,5.62
2018-01-14T02:36:40.237Z,5.63
2018-01-14T02:37:48.754Z,5.59
2018-01-14T02:38:57.799Z,5.59
2018-01-14T02:40:06.846Z,5.6
2018-01-14T02:41:15.909Z,5.59
2018-01-14T02:42:24.691Z,5.62
2018-01-14T02:43:33.209Z,5.54
2018-01-14T02:44:41.726Z,5.57
2018-01-14T02:45:50.242Z,5.48
2018-01-14T02:46:59.024Z,5.48
2018-01-14T02:48:07.809Z,5.49
2018-01-14T02:49:16.856Z,5.49
2018-01-14T02:50:25.639Z,5.52
2018-01-14T02:51:34.684Z,5.49
2018-01-14T02:52:43.467Z,5.48
2018-01-14T02:53:52.524Z,5.51
2018-01-14T02:55:01.566Z,5.44
2018-01-14T02:56:10.350Z,5.45
2018-01-14T02:57:19.666Z,5.37
2018-01-14T02:58:28.722Z,5.37
2018-01-14T02:59:37.770Z,5.37
2018-01-14T03:00:46.551Z,5.45
2018-01-14T03:01:55.341Z,5.45
2018-01-14T03:03:03.862Z,5.41
2018-01-14T03:04:12.906Z,5.42
2018-01-14T03:05:21.949Z,5.41
2018-01-14T03:06:31.290Z,5.42
2018-01-14T03:07:40.334Z,5.45
2018-01-14T03:08:48.854Z,5.39
2018-01-14T03:09:57.374Z,5.45
2018-01-14T03:11:06.155Z,5.39
2018-01-14T03:12:14.938Z,5.37
2018-01-14T03:13:23.726Z,5.36
2018-01-14T03:14:32.246Z,5.39
2018-01-14T03:15:40.766Z,5.37
2018-01-14T03:16:49.285Z,5.42
2018-01-14T03:17:58.598Z,5.44
2018-01-14T03:19:07.644Z,5.45
2018-01-14T03:20:16.954Z,5.41
2018-01-14T03:21:25.473Z,5.37
2018-01-14T03:22:34.524Z,5.39
2018-01-14T03:23:43.312Z,5.37
2018-01-14T03:24:51.828Z,5.36
2018-01-14T03:26:00.874Z,5.3
2018-01-14T03:27:09.656Z,5.39
2018-01-14T03:28:18.173Z,5.31
2018-01-14T03:29:27.217Z,5.36
2018-01-14T03:30:36.000Z,5.33
2018-01-14T03:31:44.786Z,5.31
2018-01-14T03:32:53.567Z,5.28
2018-01-14T03:34:02.347Z,5.26
2018-01-14T03:35:11.129Z,5.27
2018-01-14T03:36:19.907Z,5.27
2018-01-14T03:37:28.428Z,5.33
2018-01-14T03:38:37.219Z,5.3
2018-01-14T03:39:45.738Z,5.34
2018-01-14T03:40:54.785Z,5.26
2018-01-14T03:42:03.829Z,5.33
2018-01-14T03:43:12.612Z,5.34
2018-01-14T03:44:21.925Z,5.27
2018-01-14T03:45:30.972Z,5.33
2018-01-14T03:46:39.755Z,5.21
2018-01-14T03:47:48.537Z,5.21
2018-01-14T03:48:57.580Z,5.2
2018-01-14T03:50:06.096Z,5.21
2018-01-14T03:51:15.407Z,5.21
2018-01-14T03:52:23.924Z,5.23
2018-01-14T03:53:32.969Z,5.26
2018-01-14T03:54:41.485Z,5.23
2018-01-14T03:55:50.534Z,5.23
2018-01-14T03:56:59.314Z,5.23
2018-01-14T03:58:08.358Z,5.26
2018-01-14T03:59:16.877Z,5.23
2018-01-14T04:00:25.920Z,5.24
2018-01-14T04:01:34.702Z,5.26
2018-01-14T04:02:43.748Z,5.27
2018-01-14T04:03:53.059Z,5.26
2018-01-14T04:05:01.575Z,5.2
2018-01-14T04:06:10.359Z,5.23
2018-01-14T04:07:19.134Z,5.18
2018-01-14T04:08:27.918Z,5.15
2018-01-14T04:09:37.228Z,5.21
2018-01-14T04:10:46.269Z,5.18
2018-01-14T04:11:55.313Z,5.09
2018-01-14T04:13:04.631Z,5.18
2018-01-14T04:14:13.674Z,5.2
2018-01-14T04:15:22.720Z,5.15
2018-01-14T04:16:31.238Z,5.21
2018-01-14T04:17:39.755Z,5.21
2018-01-14T04:18:48.274Z,5.2
2018-01-14T04:19:57.053Z,5.15
2018-01-14T04:21:06.160Z,5.1
2018-01-14T04:22:14.943Z,5.16
2018-01-14T04:23:23.725Z,5.15
2018-01-14T04:24:32.511Z,5.15
2018-01-14T04:25:41.822Z,5.2
2018-01-14T04:26:50.867Z,5.13
2018-01-14T04:27:59.383Z,5.2
2018-01-14T04:29:08.167Z,5.12
2018-01-14T04:30:17.215Z,5.06
2018-01-14T04:31:26.263Z,5.18
2018-01-14T04:32:34.785Z,5.13
2018-01-14T04:33:43.561Z,5.1
2018-01-14T04:34:52.342Z,5.09
2018-01-14T04:36:01.126Z,5.09
2018-01-14T04:37:09.907Z,5.02
2018-01-14T04:38:18.686Z,5.1
2018-01-14T04:39:27.202Z,5.06
2018-01-14T04:40:35.984Z,5.08
2018-01-14T04:41:45.040Z,5
2018-01-14T04:42:53.558Z,5.05
2018-01-14T04:44:02.076Z,5.03
2018-01-14T04:45:10.860Z,5.08
2018-01-14T04:46:19.644Z,5.05
2018-01-14T04:47:28.424Z,5.02
2018-01-14T04:48:37.204Z,5.08
2018-01-14T04:49:46.248Z,5.05
2018-01-14T04:50:55.292Z,4.95
2018-01-14T04:52:04.079Z,4.98
2018-01-14T04:53:13.389Z,5.05
2018-01-14T04:54:22.440Z,5
2018-01-14T04:55:31.219Z,5
2018-01-14T04:56:40.001Z,5.05
2018-01-14T04:57:48.784Z,4.98
2018-01-14T04:58:57.299Z,5
2018-01-14T05:00:06.344Z,4.95
2018-01-14T05:01:15.124Z,5
2018-01-14T05:02:23.645Z,4.97
2018-01-14T05:03:32.688Z,4.91
2018-01-14T05:04:41.206Z,4.92
2018-01-14T05:05:49.722Z,4.88
2018-01-14T05:06:58.246Z,4.88
2018-01-14T05:08:07.027Z,4.88
2018-01-14T05:09:15.808Z,4.85
2018-01-14T05:10:24.324Z,4.91
2018-01-14T05:11:33.106Z,4.9
2018-01-14T05:12:41.624Z,4.91
2018-01-14T05:13:50.143Z,4.92
2018-01-14T05:14:58.924Z,4.85
2018-01-14T05:16:07.701Z,4.92
2018-01-14T05:17:16.227Z,4.88
2018-01-14T05:18:24.999Z,4.87
2018-01-14T05:19:33.778Z,4.95
2018-01-14T05:20:42.295Z,4.91
2018-01-14T05:21:51.613Z,4.97
2018-01-14T05:23:00.984Z,4.95
2018-01-14T05:24:09.764Z,4.87
2018-01-14T05:25:18.543Z,4.87
2018-01-14T05:26:27.588Z,4.83
2018-01-14T05:27:36.632Z,4.92
2018-01-14T05:28:45.409Z,4.91
2018-01-14T05:29:54.448Z,4.87
2018-01-14T05:31:03.231Z,4.79
2018-01-14T05:32:12.281Z,4.83
2018-01-14T05:33:21.064Z,4.78
2018-01-14T05:34:29.582Z,4.83
2018-01-14T05:35:38.364Z,4.76
2018-01-14T05:36:47.412Z,4.85
2018-01-14T05:37:56.460Z,4.83
2018-01-14T05:39:05.243Z,4.84
2018-01-14T05:40:14.284Z,4.85
2018-01-14T05:41:23.070Z,4.85
2018-01-14T05:42:31.585Z,4.83
2018-01-14T05:43:40.369Z,4.84
2018-01-14T05:44:48.887Z,4.79
2018-01-14T05:45:57.405Z,4.85
2018-01-14T05:47:06.450Z,4.87
2018-01-14T05:48:14.970Z,4.87
2018-01-14T05:49:24.023Z,4.91
2018-01-14T05:50:33.069Z,4.78
2018-01-14T05:51:41.858Z,4.83
2018-01-14T05:52:50.646Z,4.87
2018-01-14T05:53:59.954Z,4.83
2018-01-14T05:55:08.996Z,4.76
2018-01-14T05:56:17.774Z,4.83
2018-01-14T05:57:26.291Z,4.85
2018-01-14T05:58:34.808Z,4.85
2018-01-14T05:59:43.596Z,4.83
2018-01-14T06:00:52.384Z,4.85
2018-01-14T06:02:01.167Z,4.83
2018-01-14T06:03:09.947Z,4.88
2018-01-14T06:04:18.732Z,4.9
2018-01-14T06:05:27.776Z,4.9
2018-01-14T06:06:36.565Z,4.85
2018-01-14T06:07:45.079Z,4.83
2018-01-14T06:08:53.859Z,4.92
2018-01-14T06:10:02.640Z,4.9
2018-01-14T06:11:11.422Z,4.91
2018-01-14T06:12:20.521Z,4.94
2018-01-14T06:13:29.305Z,4.91
2018-01-14T06:14:38.355Z,4.88
2018-01-14T06:15:46.871Z,4.95
2018-01-14T06:16:55.918Z,4.91
2018-01-14T06:18:04.701Z,4.85
2018-01-14T06:19:13.484Z,4.84
2018-01-14T06:20:22.532Z,4.84
2018-01-14T06:21:31.314Z,4.94
2018-01-14T06:22:40.103Z,4.88
2018-01-14T06:23:48.883Z,4.88
2018-01-14T06:24:58.198Z,4.91
2018-01-14T06:26:07.512Z,4.9
2018-01-14T06:27:16.567Z,4.88
2018-01-14T06:28:25.618Z,4.91
2018-01-14T06:29:34.675Z,4.9
2018-01-14T06:30:43.722Z,4.94
2018-01-14T06:31:52.764Z,4.9
2018-01-14T06:33:01.548Z,4.92
2018-01-14T06:34:10.329Z,4.9
2018-01-14T06:35:18.851Z,4.94
2018-01-14T06:36:27.370Z,4.84
2018-01-14T06:37:35.887Z,4.88
2018-01-14T06:38:44.940Z,4.91
2018-01-14T06:39:54.251Z,4.88
2018-01-14T06:41:02.767Z,4.91
2018-01-14T06:42:11.548Z,4.97
2018-01-14T06:43:20.065Z,4.94
2018-01-14T06:44:29.142Z,4.95
2018-01-14T06:45:37.925Z,4.9
2018-01-14T06:46:46.714Z,4.83
2018-01-14T06:47:55.232Z,4.88
2018-01-14T06:49:04.556Z,4.84
2018-01-14T06:50:13.863Z,4.76
2018-01-14T06:51:22.381Z,4.85
2018-01-14T06:52:30.898Z,4.83
2018-01-14T06:53:39.948Z,4.84
2018-01-14T06:54:48.468Z,4.87
2018-01-14T06:55:57.779Z,4.9
2018-01-14T06:57:06.828Z,4.83
2018-01-14T06:58:15.610Z,4.83
2018-01-14T06:59:24.391Z,4.79
2018-01-14T07:00:32.909Z,4.92
2018-01-14T07:01:41.956Z,4.87
2018-01-14T07:02:51.270Z,4.83
2018-01-14T07:04:00.058Z,4.79
2018-01-14T07:05:08.831Z,4.74
2018-01-14T07:06:17.349Z,4.76
2018-01-14T07:07:26.132Z,4.78
2018-01-14T07:08:34.646Z,4.83
2018-01-14T07:09:43.428Z,4.78
2018-01-14T07:10:52.470Z,4.83
2018-01-14T07:12:01.513Z,4.83
2018-01-14T07:13:10.559Z,4.74
2018-01-14T07:14:19.607Z,4.75
2018-01-14T07:15:28.127Z,4.78
2018-01-14T07:16:37.173Z,4.74
2018-01-14T07:17:46.216Z,4.78
2018-01-14T07:18:54.994Z,4.84
2018-01-14T07:20:03.774Z,4.84
2018-01-14T07:21:12.821Z,4.78
2018-01-14T07:22:21.340Z,4.76
2018-01-14T07:23:30.909Z,4.84
2018-01-14T07:24:39.965Z,4.87
2018-01-14T07:25:49.010Z,4.84
2018-01-14T07:26:57.791Z,4.76
2018-01-14T07:28:06.852Z,4.88
2018-01-14T07:29:15.624Z,4.88
2018-01-14T07:30:24.406Z,4.78
2018-01-14T07:31:32.924Z,4.72
2018-01-14T07:32:41.974Z,4.78
2018-01-14T07:33:50.492Z,4.79
2018-01-14T07:34:59.535Z,4.76
2018-01-14T07:36:08.578Z,4.75
2018-01-14T07:37:17.361Z,4.74
2018-01-14T07:38:25.919Z,4.76
2018-01-14T07:39:34.662Z,4.78
2018-01-14T07:40:43.445Z,4.65
2018-01-14T07:41:52.492Z,4.74
2018-01-14T07:43:01.282Z,4.69
2018-01-14T07:44:10.325Z,4.74
2018-01-14T07:45:19.367Z,4.78
2018-01-14T07:46:28.145Z,4.79
2018-01-14T07:47:37.194Z,4.79
2018-01-14T07:48:46.239Z,4.79
2018-01-14T07:49:54.762Z,4.78
2018-01-14T07:51:04.156Z,4.76
2018-01-14T07:52:12.935Z,4.76
2018-01-14T07:53:21.718Z,4.79
2018-01-14T07:54:30.766Z,4.74
2018-01-14T07:55:39.284Z,4.92
2018-01-14T07:56:48.330Z,4.78
2018-01-14T07:57:57.113Z,4.87
2018-01-14T07:59:05.930Z,4.87
2018-01-14T08:00:14.448Z,4.85
2018-01-14T08:01:23.498Z,4.84
2018-01-14T08:02:32.280Z,4.87
2018-01-14T08:03:41.063Z,4.87
2018-01-14T08:04:50.106Z,4.87
2018-01-14T08:05:58.887Z,4.95
2018-01-14T08:07:07.672Z,4.92
2018-01-14T08:08:16.455Z,4.84
2018-01-14T08:09:25.237Z,4.92
2018-01-14T08:10:34.037Z,4.87
2018-01-14T08:11:42.809Z,4.94
2018-01-14T08:12:51.593Z,4.97
2018-01-14T08:14:00.385Z,4.9
2018-01-14T08:15:09.172Z,4.92
2018-01-14T08:16:17.946Z,4.9
2018-01-14T08:17:26.724Z,4.9
2018-01-14T08:18:36.036Z,4.9
2018-01-14T08:19:44.553Z,4.92
2018-01-14T08:20:53.598Z,4.9
2018-01-14T08:22:02.382Z,4.92
2018-01-14T08:23:11.980Z,4.94
2018-01-14T08:24:20.764Z,4.9
2018-01-14T08:25:29.807Z,4.98
2018-01-14T08:26:38.588Z,5
2018-01-14T08:27:47.634Z,4.97
2018-01-14T08:28:56.685Z,5.06
2018-01-14T08:30:05.206Z,4.95
2018-01-14T08:31:13.986Z,4.95
2018-01-14T08:32:22.505Z,5.06
2018-01-14T08:33:31.285Z,5.12
2018-01-14T08:34:40.330Z,5.05
2018-01-14T08:35:49.374Z,5.09
2018-01-14T08:36:58.418Z,5.15
2018-01-14T08:38:06.936Z,5.24
2018-01-14T08:39:15.722Z,5.12
2018-01-14T08:40:24.235Z,5.15
2018-01-14T08:41:33.280Z,5.15
2018-01-14T08:42:42.063Z,5.21
2018-01-14T08:43:51.382Z,5.12
2018-01-14T08:45:00.166Z,5.2
2018-01-14T08:46:08.685Z,5.13
2018-01-14T08:47:17.999Z,5.23
2018-01-14T08:48:27.043Z,5.23
2018-01-14T08:49:36.092Z,5.23
2018-01-14T08:50:44.609Z,5.24
2018-01-14T08:51:53.388Z,5.26
2018-01-14T08:53:01.911Z,5.27
2018-01-14T08:54:10.948Z,5.31
2018-01-14T08:55:19.996Z,5.36
2018-01-14T08:56:29.039Z,5.34
2018-01-14T08:57:37.554Z,5.39
2018-01-14T08:58:46.601Z,5.37
2018-01-14T08:59:55.122Z,5.39
2018-01-14T09:01:03.904Z,5.41
2018-01-14T09:02:12.688Z,5.48
2018-01-14T09:03:21.207Z,5.51
2018-01-14T09:04:30.252Z,5.54
2018-01-14T09:05:39.031Z,5.6
2018-01-14T09:06:48.072Z,5.48
2018-01-14T09:07:56.854Z,5.6
2018-01-14T09:09:05.645Z,5.57
2018-01-14T09:10:14.424Z,5.6
2018-01-14T09:11:23.472Z,5.69
2018-01-14T09:12:32.255Z,5.67
2018-01-14T09:13:41.569Z,5.69
2018-01-14T09:14:50.381Z,5.67
2018-01-14T09:15:59.167Z,5.78
2018-01-14T09:17:07.687Z,5.77
2018-01-14T09:18:16.206Z,5.85
2018-01-14T09:19:24.720Z,5.84
2018-01-14T09:20:33.502Z,5.75
2018-01-14T09:21:42.019Z,5.87
2018-01-14T09:22:51.064Z,5.82
2018-01-14T09:24:00.370Z,5.78
2018-01-14T09:25:09.148Z,5.82
2018-01-14T09:26:17.673Z,5.82
2018-01-14T09:27:26.713Z,5.82
2018-01-14T09:28:35.494Z,5.84
2018-01-14T09:29:44.547Z,5.81
2018-01-14T09:30:53.592Z,5.96
2018-01-14T09:32:02.375Z,5.96
2018-01-14T09:33:11.690Z,5.91
2018-01-14T09:34:20.218Z,5.92
2018-01-14T09:35:29.000Z,5.89
2018-01-14T09:36:38.047Z,5.98
2018-01-14T09:37:47.094Z,5.99
2018-01-14T09:38:55.609Z,5.92
2018-01-14T09:40:04.923Z,5.96
2018-01-14T09:41:13.704Z,5.96
2018-01-14T09:42:22.748Z,5.92
2018-01-14T09:43:31.528Z,5.98
2018-01-14T09:44:40.306Z,6
2018-01-14T09:45:49.349Z,5.98
2018-01-14T09:46:58.132Z,6.03
2018-01-14T09:48:06.915Z,6.09
2018-01-14T09:49:15.959Z,6.02
2018-01-14T09:50:24.478Z,6.07
2018-01-14T09:51:33.260Z,6.06
2018-01-14T09:52:42.041Z,6.17
2018-01-14T09:53:51.085Z,6.14
2018-01-14T09:55:00.187Z,6
2018-01-14T09:56:08.973Z,5.99
2018-01-14T09:57:17.752Z,5.99
2018-01-14T09:58:26.533Z,5.91
2018-01-14T09:59:35.843Z,5.96
2018-01-14T10:00:44.888Z,5.92
2018-01-14T10:01:53.872Z,5.95
2018-01-14T10:03:02.654Z,5.98
2018-01-14T10:04:11.438Z,5.91
2018-01-14T10:05:20.220Z,5.95
2018-01-14T10:06:29.050Z,6.05
2018-01-14T10:07:37.832Z,6
2018-01-14T10:08:46.666Z,5.91
2018-01-14T10:09:55.720Z,5.95
2018-01-14T10:11:04.503Z,5.99
2018-01-14T10:12:13.281Z,5.95
2018-01-14T10:13:22.336Z,5.89
2018-01-14T10:14:31.116Z,5.92
2018-01-14T10:15:39.899Z,6.09
2018-01-14T10:16:48.679Z,6.05
2018-01-14T10:17:57.460Z,6.14
2018-01-14T10:19:05.978Z,6.03
2018-01-14T10:20:15.027Z,5.98
2018-01-14T10:21:23.545Z,6.03
2018-01-14T10:22:32.065Z,6.06
2018-01-14T10:23:40.856Z,6
2018-01-14T10:24:49.638Z,6.14
2018-01-14T10:25:58.158Z,6.18
2018-01-14T10:27:07.469Z,6.09
2018-01-14T10:28:15.992Z,6.1
2018-01-14T10:29:24.773Z,5.98
2018-01-14T10:30:33.559Z,6.05
2018-01-14T10:31:42.615Z,6
2018-01-14T10:32:51.133Z,6.02
2018-01-14T10:34:00.186Z,6.09
2018-01-14T10:35:09.225Z,6.03
2018-01-14T10:36:18.009Z,6.05
2018-01-14T10:37:27.323Z,5.98
2018-01-14T10:38:36.631Z,6.07
2018-01-14T10:39:45.674Z,6
2018-01-14T10:40:54.194Z,6.05
2018-01-14T10:42:02.710Z,6.02
2018-01-14T10:43:11.492Z,6
2018-01-14T10:44:20.537Z,5.98
2018-01-14T10:45:29.583Z,6.05
2018-01-14T10:46:38.104Z,6.03
2018-01-14T10:47:46.623Z,6.03
2018-01-14T10:48:55.670Z,6.02
2018-01-14T10:50:04.451Z,6.03
2018-01-14T10:51:13.235Z,5.99
2018-01-14T10:52:21.756Z,5.96
2018-01-14T10:53:30.809Z,6.03
2018-01-14T10:54:39.862Z,5.99
2018-01-14T10:55:48.648Z,5.99
2018-01-14T10:56:57.432Z,5.95
2018-01-14T10:58:06.475Z,5.92
2018-01-14T10:59:14.992Z,5.91
2018-01-14T11:00:23.510Z,5.96
2018-01-14T11:01:32.554Z,5.87
2018-01-14T11:02:41.072Z,5.96
2018-01-14T11:03:49.591Z,5.96
2018-01-14T11:04:58.373Z,5.88
2018-01-14T11:06:07.153Z,5.99
2018-01-14T11:07:15.936Z,5.84
2018-01-14T11:08:24.718Z,5.89
2018-01-14T11:09:33.497Z,5.81
2018-01-14T11:10:42.020Z,5.82
2018-01-14T11:11:51.052Z,5.82
2018-01-14T11:13:00.097Z,5.81
2018-01-14T11:14:09.160Z,5.85
2018-01-14T11:15:18.215Z,5.84
2018-01-14T11:16:27.000Z,5.88
2018-01-14T11:17:36.047Z,5.85
2018-01-14T11:18:44.566Z,5.81
2018-01-14T11:19:53.346Z,5.87
2018-01-14T11:21:01.870Z,5.8
2018-01-14T11:22:10.656Z,5.85
2018-01-14T11:23:19.175Z,5.87
2018-01-14T11:24:27.691Z,5.85
2018-01-14T11:25:36.213Z,5.82
2018-01-14T11:26:45.264Z,5.8
2018-01-14T11:27:53.783Z,5.82
2018-01-14T11:29:02.562Z,5.88
2018-01-14T11:30:11.080Z,5.82
2018-01-14T11:31:20.391Z,5.8
2018-01-14T11:32:28.912Z,5.88
2018-01-14T11:33:37.694Z,5.89
2018-01-14T11:34:46.211Z,5.99
2018-01-14T11:35:54.992Z,5.96
2018-01-14T11:37:04.301Z,5.92
2018-01-14T11:38:13.081Z,5.95
2018-01-14T11:39:21.859Z,6.02
2018-01-14T11:40:30.652Z,5.95
2018-01-14T11:41:39.434Z,6.05
2018-01-14T11:42:48.215Z,6.03
2018-01-14T11:43:57.263Z,6.05
2018-01-14T11:45:06.310Z,6.1
2018-01-14T11:46:15.093Z,6.07
2018-01-14T11:47:23.609Z,6
2018-01-14T11:48:32.391Z,6.05
2018-01-14T11:49:41.174Z,6.02
2018-01-14T11:50:49.959Z,6.03
2018-01-14T11:51:58.777Z,6
2018-01-14T11:53:08.092Z,6.1
2018-01-14T11:54:17.142Z,6.02
2018-01-14T11:55:25.923Z,6.06
2018-01-14T11:56:34.705Z,6
2018-01-14T11:57:44.038Z,6
2018-01-14T11:58:52.819Z,6.07
2018-01-14T12:00:01.598Z,6.1
2018-01-14T12:01:10.653Z,6.15
2018-01-14T12:02:19.172Z,6.07
2018-01-14T12:03:27.953Z,6.14
2018-01-14T12:04:36.739Z,6.21
2018-01-14T12:05:45.527Z,6.18
2018-01-14T12:06:54.046Z,6.07
2018-01-14T12:08:03.101Z,6.18
2018-01-14T12:09:11.882Z,6.2
2018-01-14T12:10:20.664Z,6.17
2018-01-14T12:11:29.897Z,6.18
2018-01-14T12:12:38.678Z,6.13
2018-01-14T12:13:47.470Z,6.06
2018-01-14T12:14:56.572Z,6.1
2018-01-14T12:16:05.092Z,6.18
2018-01-14T12:17:14.137Z,6.13
2018-01-14T12:18:22.921Z,6.07
2018-01-14T12:19:31.968Z,6.09
2018-01-14T12:20:40.755Z,6.15
2018-01-14T12:21:49.538Z,6.06
2018-01-14T12:22:58.325Z,6.17
2018-01-14T12:24:07.115Z,6.09
2018-01-14T12:25:15.629Z,6.09
2018-01-14T12:26:24.411Z,6.17
2018-01-14T12:27:32.973Z,6.15
2018-01-14T12:28:41.445Z,6.07
2018-01-14T12:29:50.229Z,6.18
2018-01-14T12:30:59.013Z,6.13
2018-01-14T12:32:08.056Z,6.13
2018-01-14T12:33:16.575Z,6.21
2018-01-14T12:34:25.357Z,6.21
2018-01-14T12:35:34.136Z,6.14
2018-01-14T12:36:42.658Z,6.26
2018-01-14T12:37:51.174Z,6.21
2018-01-14T12:39:00.480Z,6.28
2018-01-14T12:40:08.997Z,6.21
2018-01-14T12:41:17.780Z,6.21
2018-01-14T12:42:26.559Z,6.26
2018-01-14T12:43:35.342Z,6.24
2018-01-14T12:44:44.124Z,6.26
2018-01-14T12:45:53.142Z,6.25
2018-01-14T12:47:02.188Z,6.31
2018-01-14T12:48:10.972Z,6.34
2018-01-14T12:49:19.494Z,6.31
2018-01-14T12:50:28.276Z,6.31
2018-01-14T12:51:37.055Z,6.28
2018-01-14T12:52:46.109Z,6.29
2018-01-14T12:53:54.893Z,6.34
2018-01-14T12:55:03.940Z,6.36
2018-01-14T12:56:12.725Z,6.29
2018-01-14T12:57:21.244Z,6.31
2018-01-14T12:58:30.025Z,6.25
2018-01-14T12:59:38.543Z,6.29
2018-01-14T13:00:47.906Z,6.25
2018-01-14T13:01:56.954Z,6.26
2018-01-14T13:03:06.006Z,6.29
2018-01-14T13:04:14.525Z,6.33
2018-01-14T13:05:23.304Z,6.33
2018-01-14T13:06:32.091Z,6.37
2018-01-14T13:07:41.135Z,6.39
2018-01-14T13:08:49.653Z,6.37
2018-01-14T13:09:58.961Z,6.4
2018-01-14T13:11:07.478Z,6.43
2018-01-14T13:12:15.994Z,6.39
2018-01-14T13:13:25.339Z,6.4
2018-01-14T13:14:34.357Z,6.44
2018-01-14T13:15:43.147Z,6.39
2018-01-14T13:16:52.462Z,6.43
2018-01-14T13:18:00.979Z,6.37
2018-01-14T13:19:10.027Z,6.37
2018-01-14T13:20:19.071Z,6.42
2018-01-14T13:21:28.117Z,6.39
2018-01-14T13:22:36.640Z,6.43
2018-01-14T13:23:45.687Z,6.4
2018-01-14T13:24:54.467Z,6.39
2018-01-14T13:26:03.248Z,6.4
2018-01-14T13:27:12.031Z,6.4
2018-01-14T13:28:20.855Z,6.42
2018-01-14T13:29:29.595Z,6.4
2018-01-14T13:30:38.427Z,6.4
2018-01-14T13:31:47.473Z,6.4
2018-01-14T13:32:56.786Z,6.4
2018-01-14T13:34:05.315Z,6.42
2018-01-14T13:35:13.830Z,6.39
2018-01-14T13:36:22.349Z,6.4
2018-01-14T13:37:31.397Z,6.42
2018-01-14T13:38:40.178Z,6.4
2018-01-14T13:39:49.017Z,6.4
2018-01-14T13:40:58.063Z,6.4
2018-01-14T13:42:06.845Z,6.44
2018-01-14T13:43:15.363Z,6.39
2018-01-14T13:44:24.418Z,6.39
2018-01-14T13:45:33.202Z,6.33
2018-01-14T13:46:41.984Z,6.33
2018-01-14T13:47:50.501Z,6.33
2018-01-14T13:48:59.019Z,6.34
2018-01-14T13:50:07.538Z,6.29
2018-01-14T13:51:16.846Z,6.34
2018-01-14T13:52:25.360Z,6.39
2018-01-14T13:53:33.879Z,6.34
2018-01-14T13:54:42.661Z,6.34
2018-01-14T13:55:51.179Z,6.34
2018-01-14T13:56:59.962Z,6.33
2018-01-14T13:58:08.483Z,6.34
2018-01-14T13:59:17.796Z,6.28
2018-01-14T14:00:26.845Z,6.26
2018-01-14T14:01:35.634Z,6.33
2018-01-14T14:02:44.416Z,6.29
2018-01-14T14:03:53.462Z,6.28
2018-01-14T14:05:02.775Z,6.29
2018-01-14T14:06:11.563Z,6.28
2018-01-14T14:07:20.871Z,6.24
2018-01-14T14:08:30.187Z,6.21
2018-01-14T14:09:38.968Z,6.26
2018-01-14T14:10:47.486Z,6.2
2018-01-14T14:11:56.273Z,6.28
2018-01-14T14:13:05.063Z,6.17
2018-01-14T14:14:14.107Z,6.24
2018-01-14T14:15:22.633Z,6.26
2018-01-14T14:16:31.446Z,6.28
2018-01-14T14:17:40.199Z,6.15
2018-01-14T14:18:48.719Z,6.09
2018-01-14T14:19:57.238Z,6.18
2018-01-14T14:21:06.019Z,6.1
2018-01-14T14:22:14.542Z,6.17
2018-01-14T14:23:23.323Z,6.14
2018-01-14T14:24:32.104Z,6.13
2018-01-14T14:25:41.151Z,6.17
2018-01-14T14:26:50.198Z,6.14
2018-01-14T14:27:59.243Z,6.13
2018-01-14T14:29:08.026Z,6.06
2018-01-14T14:30:16.545Z,6.1
2018-01-14T14:31:25.102Z,6.07
2018-01-14T14:32:33.600Z,6.07
2018-01-14T14:33:42.369Z,6.1
2018-01-14T14:34:51.386Z,6.07
2018-01-14T14:36:00.166Z,6.07
2018-01-14T14:37:08.684Z,6.03
2018-01-14T14:38:17.467Z,6
2018-01-14T14:39:26.251Z,5.96
2018-01-14T14:40:35.033Z,5.95
2018-01-14T14:41:44.348Z,5.92
2018-01-14T14:42:53.131Z,5.87
2018-01-14T14:44:01.651Z,5.92
2018-01-14T14:45:10.437Z,5.98
2018-01-14T14:46:19.219Z,5.85
2018-01-14T14:47:28.002Z,5.84
2018-01-14T14:48:37.044Z,5.85
2018-01-14T14:49:45.831Z,5.87
2018-01-14T14:50:55.202Z,5.82
2018-01-14T14:52:03.721Z,5.78
2018-01-14T14:53:13.293Z,5.87
2018-01-14T14:54:21.809Z,5.73
2018-01-14T14:55:30.591Z,5.78
2018-01-14T14:56:39.375Z,5.78
2018-01-14T14:57:48.156Z,5.73
2018-01-14T14:58:56.943Z,5.7
2018-01-14T15:00:05.723Z,5.67
2018-01-14T15:01:14.242Z,5.73
2018-01-14T15:02:23.023Z,5.75
2018-01-14T15:03:32.071Z,5.72
2018-01-14T15:04:41.117Z,5.72
2018-01-14T15:05:50.177Z,5.67
2018-01-14T15:06:58.706Z,5.66
2018-01-14T15:08:07.266Z,5.67
2018-01-14T15:09:16.064Z,5.6
2018-01-14T15:10:25.645Z,5.63
2018-01-14T15:11:34.776Z,5.51
2018-01-14T15:12:43.296Z,5.59
2018-01-14T15:13:52.346Z,5.51
2018-01-14T15:15:01.715Z,5.59
2018-01-14T15:16:10.497Z,5.48
2018-01-14T15:17:19.275Z,5.48
2018-01-14T15:18:27.791Z,5.48
2018-01-14T15:19:36.310Z,5.49
2018-01-14T15:20:45.095Z,5.54